sensor_id;sensor_type;location;lat;lon;timestamp;pressure;altitude;pressure_sealevel;temperature;humidity
81990;BME280;71485;51.638;-0.182;2023-09-18T00:01:23;99392.70;;;27.60;35.27
81990;BME280;71485;51.638;-0.182;2023-09-18T00:03:48;99394.42;;;27.36;35.68
81990;BME280;71485;51.638;-0.182;2023-09-18T00:06:13;99389.29;;;27.93;34.90
81990;BME280;71485;51.638;-0.182;2023-09-18T00:08:39;99377.19;;;27.54;34.66
81990;BME280;71485;51.638;-0.182;2023-09-18T00:11:05;99373.23;;;27.42;34.77
81990;BME280;71485;51.638;-0.182;2023-09-18T00:13:31;99371.32;;;27.41;34.56
81990;BME280;71485;51.638;-0.182;2023-09-18T00:15:56;99362.16;;;27.21;34.68
81990;BME280;71485;51.638;-0.182;2023-09-18T00:18:21;99356.33;;;27.25;34.39
81990;BME280;71485;51.638;-0.182;2023-09-18T00:20:47;99347.23;;;27.35;34.16
81990;BME280;71485;51.638;-0.182;2023-09-18T00:23:12;99343.43;;;26.81;34.20
81990;BME280;71485;51.638;-0.182;2023-09-18T00:25:39;99342.05;;;27.41;33.96
81990;BME280;71485;51.638;-0.182;2023-09-18T00:28:04;99333.09;;;26.90;33.95
81990;BME280;71485;51.638;-0.182;2023-09-18T00:30:29;99317.36;;;27.65;33.97
81990;BME280;71485;51.638;-0.182;2023-09-18T00:32:56;99308.80;;;27.36;33.96
81990;BME280;71485;51.638;-0.182;2023-09-18T00:35:20;99299.30;;;27.50;33.78
81990;BME280;71485;51.638;-0.182;2023-09-18T00:37:49;99278.43;;;27.24;33.83
81990;BME280;71485;51.638;-0.182;2023-09-18T00:40:12;99254.58;;;27.41;33.91
81990;BME280;71485;51.638;-0.182;2023-09-18T00:42:36;99246.97;;;27.59;33.64
81990;BME280;71485;51.638;-0.182;2023-09-18T00:45:02;99242.80;;;27.32;33.67
81990;BME280;71485;51.638;-0.182;2023-09-18T00:47:29;99242.58;;;27.54;33.66
81990;BME280;71485;51.638;-0.182;2023-09-18T00:49:56;99255.79;;;27.54;33.65
81990;BME280;71485;51.638;-0.182;2023-09-18T00:52:20;99275.90;;;27.64;33.43
81990;BME280;71485;51.638;-0.182;2023-09-18T00:54:47;99283.76;;;27.28;33.50
81990;BME280;71485;51.638;-0.182;2023-09-18T00:57:10;99273.01;;;27.38;33.69
81990;BME280;71485;51.638;-0.182;2023-09-18T00:59:36;99262.55;;;27.28;33.58
81990;BME280;71485;51.638;-0.182;2023-09-18T01:02:02;99265.29;;;27.54;33.52
81990;BME280;71485;51.638;-0.182;2023-09-18T01:04:28;99263.24;;;27.40;33.69
81990;BME280;71485;51.638;-0.182;2023-09-18T01:06:52;99263.86;;;26.94;33.93
81990;BME280;71485;51.638;-0.182;2023-09-18T01:09:18;99259.86;;;27.43;33.63
81990;BME280;71485;51.638;-0.182;2023-09-18T01:11:50;99252.31;;;27.42;33.57
81990;BME280;71485;51.638;-0.182;2023-09-18T01:14:13;99243.11;;;27.38;33.62
81990;BME280;71485;51.638;-0.182;2023-09-18T01:16:37;99235.76;;;27.38;33.63
81990;BME280;71485;51.638;-0.182;2023-09-18T01:19:00;99236.28;;;27.39;33.59
81990;BME280;71485;51.638;-0.182;2023-09-18T01:21:25;99231.76;;;27.44;33.52
81990;BME280;71485;51.638;-0.182;2023-09-18T01:23:53;99216.85;;;27.19;33.47
81990;BME280;71485;51.638;-0.182;2023-09-18T01:26:17;99206.73;;;27.28;33.36
81990;BME280;71485;51.638;-0.182;2023-09-18T01:28:42;99199.26;;;27.19;33.75
81990;BME280;71485;51.638;-0.182;2023-09-18T01:31:08;99193.04;;;27.23;33.74
81990;BME280;71485;51.638;-0.182;2023-09-18T01:33:34;99186.51;;;27.11;33.55
81990;BME280;71485;51.638;-0.182;2023-09-18T01:35:59;99176.15;;;27.38;33.50
81990;BME280;71485;51.638;-0.182;2023-09-18T01:38:25;99169.26;;;27.41;33.50
81990;BME280;71485;51.638;-0.182;2023-09-18T01:40:51;99168.67;;;27.41;33.43
81990;BME280;71485;51.638;-0.182;2023-09-18T01:43:15;99163.12;;;27.45;33.38
81990;BME280;71485;51.638;-0.182;2023-09-18T01:45:42;99157.87;;;27.26;33.64
81990;BME280;71485;51.638;-0.182;2023-09-18T01:48:08;99150.84;;;26.88;33.81
81990;BME280;71485;51.638;-0.182;2023-09-18T01:50:33;99134.95;;;26.99;33.97
81990;BME280;71485;51.638;-0.182;2023-09-18T01:52:58;99120.86;;;27.08;33.84
81990;BME280;71485;51.638;-0.182;2023-09-18T01:55:27;99109.07;;;27.17;33.73
81990;BME280;71485;51.638;-0.182;2023-09-18T01:57:55;99106.02;;;27.03;33.91
81990;BME280;71485;51.638;-0.182;2023-09-18T02:00:15;99105.43;;;27.10;33.80
81990;BME280;71485;51.638;-0.182;2023-09-18T02:02:39;99093.10;;;27.00;33.89
81990;BME280;71485;51.638;-0.182;2023-09-18T02:05:05;99081.62;;;27.27;33.56
81990;BME280;71485;51.638;-0.182;2023-09-18T02:07:30;99086.51;;;27.45;33.67
81990;BME280;71485;51.638;-0.182;2023-09-18T02:09:57;99094.82;;;27.24;33.66
81990;BME280;71485;51.638;-0.182;2023-09-18T02:12:22;99095.02;;;27.44;33.74
81990;BME280;71485;51.638;-0.182;2023-09-18T02:14:47;99100.67;;;27.27;34.03
81990;BME280;71485;51.638;-0.182;2023-09-18T02:17:13;99101.58;;;26.91;33.85
81990;BME280;71485;51.638;-0.182;2023-09-18T02:19:38;99106.54;;;26.64;34.23
81990;BME280;71485;51.638;-0.182;2023-09-18T02:22:04;99104.46;;;27.18;33.86
81990;BME280;71485;51.638;-0.182;2023-09-18T02:24:29;99099.81;;;27.54;33.67
81990;BME280;71485;51.638;-0.182;2023-09-18T02:26:56;99090.53;;;27.03;34.02
81990;BME280;71485;51.638;-0.182;2023-09-18T02:29:20;99091.92;;;27.20;33.81
81990;BME280;71485;51.638;-0.182;2023-09-18T02:31:48;99086.10;;;27.00;35.00
81990;BME280;71485;51.638;-0.182;2023-09-18T02:34:11;99081.46;;;26.33;39.18
81990;BME280;71485;51.638;-0.182;2023-09-18T02:36:37;99078.70;;;26.63;39.89
81990;BME280;71485;51.638;-0.182;2023-09-18T02:39:04;99077.62;;;26.57;35.73
81990;BME280;71485;51.638;-0.182;2023-09-18T02:41:28;99076.58;;;26.60;39.52
81990;BME280;71485;51.638;-0.182;2023-09-18T02:43:54;99077.04;;;25.63;42.08
81990;BME280;71485;51.638;-0.182;2023-09-18T02:46:19;99070.17;;;26.39;36.57
81990;BME280;71485;51.638;-0.182;2023-09-18T02:48:46;99063.95;;;27.15;35.92
81990;BME280;71485;51.638;-0.182;2023-09-18T02:51:11;99060.76;;;26.50;35.69
81990;BME280;71485;51.638;-0.182;2023-09-18T02:53:36;99058.09;;;26.75;34.90
81990;BME280;71485;51.638;-0.182;2023-09-18T02:56:06;99054.70;;;27.39;33.79
81990;BME280;71485;51.638;-0.182;2023-09-18T02:58:28;99052.49;;;26.57;40.25
81990;BME280;71485;51.638;-0.182;2023-09-18T03:00:53;99057.39;;;26.33;36.03
81990;BME280;71485;51.638;-0.182;2023-09-18T03:03:18;99064.75;;;26.89;36.80
81990;BME280;71485;51.638;-0.182;2023-09-18T03:05:44;99067.85;;;25.82;39.67
81990;BME280;71485;51.638;-0.182;2023-09-18T03:08:11;99068.74;;;25.99;38.22
81990;BME280;71485;51.638;-0.182;2023-09-18T03:10:35;99071.86;;;26.21;36.26
81990;BME280;71485;51.638;-0.182;2023-09-18T03:13:00;99069.12;;;25.96;39.73
81990;BME280;71485;51.638;-0.182;2023-09-18T03:15:26;99068.58;;;26.51;36.95
81990;BME280;71485;51.638;-0.182;2023-09-18T03:17:51;99068.43;;;25.44;40.01
81990;BME280;71485;51.638;-0.182;2023-09-18T03:20:17;99072.11;;;26.94;34.87
81990;BME280;71485;51.638;-0.182;2023-09-18T03:22:43;99074.19;;;27.09;34.26
81990;BME280;71485;51.638;-0.182;2023-09-18T03:25:08;99081.46;;;26.97;34.31
81990;BME280;71485;51.638;-0.182;2023-09-18T03:27:34;99086.42;;;26.84;34.24
81990;BME280;71485;51.638;-0.182;2023-09-18T03:29:59;99090.46;;;26.90;34.57
81990;BME280;71485;51.638;-0.182;2023-09-18T03:32:25;99094.99;;;26.56;34.71
81990;BME280;71485;51.638;-0.182;2023-09-18T03:34:50;99095.46;;;27.18;34.11
81990;BME280;71485;51.638;-0.182;2023-09-18T03:37:15;99100.57;;;26.60;34.55
81990;BME280;71485;51.638;-0.182;2023-09-18T03:39:41;99101.04;;;27.08;33.91
81990;BME280;71485;51.638;-0.182;2023-09-18T03:42:06;99105.07;;;27.05;33.95
81990;BME280;71485;51.638;-0.182;2023-09-18T03:44:32;99105.25;;;26.66;34.42
81990;BME280;71485;51.638;-0.182;2023-09-18T03:46:58;99101.13;;;26.35;34.85
81990;BME280;71485;51.638;-0.182;2023-09-18T03:49:23;99098.39;;;25.90;35.41
81990;BME280;71485;51.638;-0.182;2023-09-18T03:51:48;99096.12;;;26.32;35.18
81990;BME280;71485;51.638;-0.182;2023-09-18T03:54:15;99100.64;;;26.57;35.13
81990;BME280;71485;51.638;-0.182;2023-09-18T03:56:41;99098.86;;;26.09;35.45
81990;BME280;71485;51.638;-0.182;2023-09-18T03:59:05;99090.00;;;25.91;35.33
81990;BME280;71485;51.638;-0.182;2023-09-18T04:01:31;99093.33;;;26.00;35.54
81990;BME280;71485;51.638;-0.182;2023-09-18T04:03:56;99094.43;;;25.97;35.55
81990;BME280;71485;51.638;-0.182;2023-09-18T04:06:22;99095.40;;;26.05;35.39
81990;BME280;71485;51.638;-0.182;2023-09-18T04:08:47;99096.17;;;26.00;35.41
81990;BME280;71485;51.638;-0.182;2023-09-18T04:11:13;99095.65;;;25.99;35.39
81990;BME280;71485;51.638;-0.182;2023-09-18T04:13:39;99097.24;;;26.46;35.12
81990;BME280;71485;51.638;-0.182;2023-09-18T04:16:04;99095.73;;;26.11;35.22
81990;BME280;71485;51.638;-0.182;2023-09-18T04:18:29;99094.88;;;26.19;35.16
81990;BME280;71485;51.638;-0.182;2023-09-18T04:20:55;99086.68;;;25.95;35.40
81990;BME280;71485;51.638;-0.182;2023-09-18T04:23:22;99088.53;;;26.22;35.05
81990;BME280;71485;51.638;-0.182;2023-09-18T04:25:48;99088.22;;;26.06;35.27
81990;BME280;71485;51.638;-0.182;2023-09-18T04:28:12;99088.19;;;26.24;35.00
81990;BME280;71485;51.638;-0.182;2023-09-18T04:30:38;99085.94;;;25.84;35.49
81990;BME280;71485;51.638;-0.182;2023-09-18T04:33:03;99081.83;;;25.96;35.03
81990;BME280;71485;51.638;-0.182;2023-09-18T04:35:28;99077.70;;;26.29;35.25
81990;BME280;71485;51.638;-0.182;2023-09-18T04:37:55;99077.69;;;26.44;34.95
81990;BME280;71485;51.638;-0.182;2023-09-18T04:40:19;99074.69;;;26.18;35.04
81990;BME280;71485;51.638;-0.182;2023-09-18T04:42:46;99072.20;;;26.39;35.05
81990;BME280;71485;51.638;-0.182;2023-09-18T04:45:10;99072.14;;;26.20;35.00
81990;BME280;71485;51.638;-0.182;2023-09-18T04:47:37;99069.20;;;25.94;34.98
81990;BME280;71485;51.638;-0.182;2023-09-18T04:50:03;99064.34;;;26.55;34.83
81990;BME280;71485;51.638;-0.182;2023-09-18T04:52:27;99069.19;;;26.15;35.03
81990;BME280;71485;51.638;-0.182;2023-09-18T04:54:54;99073.54;;;26.03;34.84
81990;BME280;71485;51.638;-0.182;2023-09-18T04:57:18;99073.07;;;26.48;34.90
81990;BME280;71485;51.638;-0.182;2023-09-18T04:59:44;99074.66;;;26.31;35.18
81990;BME280;71485;51.638;-0.182;2023-09-18T05:02:10;99071.85;;;25.95;35.04
81990;BME280;71485;51.638;-0.182;2023-09-18T05:04:34;99068.72;;;26.10;35.13
81990;BME280;71485;51.638;-0.182;2023-09-18T05:07:00;99067.37;;;26.09;35.18
81990;BME280;71485;51.638;-0.182;2023-09-18T05:09:26;99064.22;;;26.07;35.18
81990;BME280;71485;51.638;-0.182;2023-09-18T05:11:51;99061.95;;;26.21;35.06
81990;BME280;71485;51.638;-0.182;2023-09-18T05:14:17;99066.63;;;26.15;35.17
81990;BME280;71485;51.638;-0.182;2023-09-18T05:16:42;99063.11;;;25.95;35.40
81990;BME280;71485;51.638;-0.182;2023-09-18T05:19:08;99059.69;;;25.93;35.51
81990;BME280;71485;51.638;-0.182;2023-09-18T05:21:33;99055.39;;;26.28;35.30
81990;BME280;71485;51.638;-0.182;2023-09-18T05:24:00;99058.26;;;26.32;35.34
81990;BME280;71485;51.638;-0.182;2023-09-18T05:26:24;99056.23;;;26.02;35.41
81990;BME280;71485;51.638;-0.182;2023-09-18T05:28:50;99051.76;;;26.19;35.50
81990;BME280;71485;51.638;-0.182;2023-09-18T05:31:17;99052.28;;;25.67;35.53
81990;BME280;71485;51.638;-0.182;2023-09-18T05:33:41;99053.06;;;26.13;35.62
81990;BME280;71485;51.638;-0.182;2023-09-18T05:36:06;99053.52;;;25.96;35.64
81990;BME280;71485;51.638;-0.182;2023-09-18T05:38:32;99055.36;;;25.86;35.75
81990;BME280;71485;51.638;-0.182;2023-09-18T05:40:57;99056.73;;;26.18;35.67
81990;BME280;71485;51.638;-0.182;2023-09-18T05:43:23;99058.63;;;26.06;35.53
81990;BME280;71485;51.638;-0.182;2023-09-18T05:45:48;99055.07;;;26.21;35.71
81990;BME280;71485;51.638;-0.182;2023-09-18T05:48:15;99053.97;;;25.82;36.23
81990;BME280;71485;51.638;-0.182;2023-09-18T05:50:41;99050.12;;;25.99;36.34
81990;BME280;71485;51.638;-0.182;2023-09-18T05:53:06;99048.97;;;25.46;36.41
81990;BME280;71485;51.638;-0.182;2023-09-18T05:55:33;99054.65;;;25.89;36.40
81990;BME280;71485;51.638;-0.182;2023-09-18T05:57:57;99054.30;;;25.72;36.18
81990;BME280;71485;51.638;-0.182;2023-09-18T06:00:23;99055.04;;;25.98;36.08
81990;BME280;71485;51.638;-0.182;2023-09-18T06:02:49;99054.01;;;25.94;36.09
81990;BME280;71485;51.638;-0.182;2023-09-18T06:05:13;99049.29;;;26.06;35.89
81990;BME280;71485;51.638;-0.182;2023-09-18T06:07:39;99048.33;;;26.15;35.70
81990;BME280;71485;51.638;-0.182;2023-09-18T06:10:05;99050.38;;;25.80;35.83
81990;BME280;71485;51.638;-0.182;2023-09-18T06:12:31;99049.96;;;25.93;35.69
81990;BME280;71485;51.638;-0.182;2023-09-18T06:14:56;99050.04;;;26.34;35.79
81990;BME280;71485;51.638;-0.182;2023-09-18T06:17:21;99053.21;;;25.71;35.93
81990;BME280;71485;51.638;-0.182;2023-09-18T06:19:47;99057.57;;;26.02;35.85
81990;BME280;71485;51.638;-0.182;2023-09-18T06:22:12;99056.05;;;25.89;35.68
81990;BME280;71485;51.638;-0.182;2023-09-18T06:24:38;99057.72;;;26.02;35.90
81990;BME280;71485;51.638;-0.182;2023-09-18T06:27:05;99054.82;;;25.69;35.97
81990;BME280;71485;51.638;-0.182;2023-09-18T06:29:28;99053.76;;;25.93;35.95
81990;BME280;71485;51.638;-0.182;2023-09-18T06:31:54;99055.93;;;25.98;35.91
81990;BME280;71485;51.638;-0.182;2023-09-18T06:34:19;99053.75;;;26.09;35.86
81990;BME280;71485;51.638;-0.182;2023-09-18T06:36:45;99056.12;;;26.02;35.96
81990;BME280;71485;51.638;-0.182;2023-09-18T06:39:12;99058.40;;;25.79;35.94
81990;BME280;71485;51.638;-0.182;2023-09-18T06:41:36;99059.78;;;26.12;35.90
81990;BME280;71485;51.638;-0.182;2023-09-18T06:44:02;99065.61;;;25.70;36.14
81990;BME280;71485;51.638;-0.182;2023-09-18T06:46:32;99069.29;;;25.95;36.15
81990;BME280;71485;51.638;-0.182;2023-09-18T06:48:52;99075.33;;;25.53;36.43
81990;BME280;71485;51.638;-0.182;2023-09-18T06:51:19;99072.46;;;25.74;36.43
81990;BME280;71485;51.638;-0.182;2023-09-18T06:53:43;99074.14;;;26.01;36.09
81990;BME280;71485;51.638;-0.182;2023-09-18T06:56:10;99073.36;;;26.01;36.13
81990;BME280;71485;51.638;-0.182;2023-09-18T06:58:35;99070.05;;;25.93;36.27
81990;BME280;71485;51.638;-0.182;2023-09-18T07:01:02;99069.66;;;26.02;36.15
81990;BME280;71485;51.638;-0.182;2023-09-18T07:03:27;99064.49;;;26.03;36.23
81990;BME280;71485;51.638;-0.182;2023-09-18T07:05:51;99064.94;;;26.14;36.21
81990;BME280;71485;51.638;-0.182;2023-09-18T07:08:17;99063.54;;;26.03;36.43
81990;BME280;71485;51.638;-0.182;2023-09-18T07:10:43;99061.27;;;26.07;36.47
81990;BME280;71485;51.638;-0.182;2023-09-18T07:13:08;99055.19;;;25.85;36.29
81990;BME280;71485;51.638;-0.182;2023-09-18T07:15:33;99056.58;;;26.15;36.21
81990;BME280;71485;51.638;-0.182;2023-09-18T07:17:59;99060.03;;;26.15;36.28
81990;BME280;71485;51.638;-0.182;2023-09-18T07:20:24;99063.24;;;26.12;36.22
81990;BME280;71485;51.638;-0.182;2023-09-18T07:22:50;99067.18;;;26.04;36.23
81990;BME280;71485;51.638;-0.182;2023-09-18T07:25:17;99063.21;;;26.21;35.93
81990;BME280;71485;51.638;-0.182;2023-09-18T07:27:41;99062.86;;;26.17;36.00
81990;BME280;71485;51.638;-0.182;2023-09-18T07:30:07;99061.32;;;25.69;35.97
81990;BME280;71485;51.638;-0.182;2023-09-18T07:32:32;99056.84;;;26.21;36.01
81990;BME280;71485;51.638;-0.182;2023-09-18T07:34:59;99056.08;;;25.90;36.24
81990;BME280;71485;51.638;-0.182;2023-09-18T07:37:30;99057.23;;;25.85;38.06
81990;BME280;71485;51.638;-0.182;2023-09-18T07:39:49;99059.30;;;26.32;36.24
81990;BME280;71485;51.638;-0.182;2023-09-18T07:42:14;99065.58;;;26.36;36.03
81990;BME280;71485;51.638;-0.182;2023-09-18T07:44:39;99069.52;;;25.91;36.45
81990;BME280;71485;51.638;-0.182;2023-09-18T07:47:06;99072.87;;;25.89;36.52
81990;BME280;71485;51.638;-0.182;2023-09-18T07:49:31;99069.65;;;25.75;36.18
81990;BME280;71485;51.638;-0.182;2023-09-18T07:51:56;99059.68;;;26.16;36.04
81990;BME280;71485;51.638;-0.182;2023-09-18T07:54:22;99056.91;;;26.06;36.08
81990;BME280;71485;51.638;-0.182;2023-09-18T07:56:49;99058.60;;;25.93;36.24
81990;BME280;71485;51.638;-0.182;2023-09-18T07:59:13;99056.21;;;26.01;36.39
81990;BME280;71485;51.638;-0.182;2023-09-18T08:01:39;99059.05;;;25.88;36.24
81990;BME280;71485;51.638;-0.182;2023-09-18T08:04:04;99058.80;;;25.75;36.10
81990;BME280;71485;51.638;-0.182;2023-09-18T08:06:30;99061.76;;;26.34;36.00
81990;BME280;71485;51.638;-0.182;2023-09-18T08:08:55;99061.25;;;25.93;36.52
81990;BME280;71485;51.638;-0.182;2023-09-18T08:11:20;99067.20;;;26.07;36.10
81990;BME280;71485;51.638;-0.182;2023-09-18T08:13:46;99064.02;;;26.26;35.98
81990;BME280;71485;51.638;-0.182;2023-09-18T08:16:11;99061.20;;;26.36;35.86
81990;BME280;71485;51.638;-0.182;2023-09-18T08:18:37;99054.58;;;26.17;36.07
81990;BME280;71485;51.638;-0.182;2023-09-18T08:21:03;99053.07;;;25.94;36.02
81990;BME280;71485;51.638;-0.182;2023-09-18T08:23:28;99048.21;;;26.27;35.59
81990;BME280;71485;51.638;-0.182;2023-09-18T08:25:54;99052.68;;;26.07;35.82
81990;BME280;71485;51.638;-0.182;2023-09-18T08:28:19;99050.62;;;26.25;35.50
81990;BME280;71485;51.638;-0.182;2023-09-18T08:30:45;99049.04;;;26.38;35.60
81990;BME280;71485;51.638;-0.182;2023-09-18T08:33:10;99047.71;;;26.57;35.29
81990;BME280;71485;51.638;-0.182;2023-09-18T08:35:36;99051.53;;;26.12;35.59
81990;BME280;71485;51.638;-0.182;2023-09-18T08:38:07;99049.20;;;26.29;35.56
81990;BME280;71485;51.638;-0.182;2023-09-18T08:40:27;99038.70;;;25.94;35.34
81990;BME280;71485;51.638;-0.182;2023-09-18T08:42:55;99034.59;;;26.34;35.49
81990;BME280;71485;51.638;-0.182;2023-09-18T08:45:27;99038.70;;;26.41;35.39
81990;BME280;71485;51.638;-0.182;2023-09-18T08:47:44;99035.07;;;25.95;35.75
81990;BME280;71485;51.638;-0.182;2023-09-18T08:50:10;99038.24;;;26.34;35.50
81990;BME280;71485;51.638;-0.182;2023-09-18T08:52:35;99036.06;;;26.11;35.92
81990;BME280;71485;51.638;-0.182;2023-09-18T08:55:02;99033.28;;;26.43;36.51
81990;BME280;71485;51.638;-0.182;2023-09-18T08:57:26;99031.76;;;26.32;36.55
81990;BME280;71485;51.638;-0.182;2023-09-18T08:59:52;99030.22;;;26.13;36.87
81990;BME280;71485;51.638;-0.182;2023-09-18T09:02:17;99025.83;;;26.05;36.60
81990;BME280;71485;51.638;-0.182;2023-09-18T09:04:43;99028.54;;;25.90;36.88
81990;BME280;71485;51.638;-0.182;2023-09-18T09:07:07;99023.11;;;25.70;36.91
81990;BME280;71485;51.638;-0.182;2023-09-18T09:09:33;99016.50;;;26.07;37.17
81990;BME280;71485;51.638;-0.182;2023-09-18T09:11:58;99017.61;;;26.11;36.59
81990;BME280;71485;51.638;-0.182;2023-09-18T09:14:24;99009.28;;;26.24;36.06
81990;BME280;71485;51.638;-0.182;2023-09-18T09:16:51;99005.11;;;26.25;36.21
81990;BME280;71485;51.638;-0.182;2023-09-18T09:19:15;99003.43;;;26.13;36.48
81990;BME280;71485;51.638;-0.182;2023-09-18T09:21:40;99000.61;;;26.38;36.32
81990;BME280;71485;51.638;-0.182;2023-09-18T09:24:06;98997.65;;;26.03;36.13
81990;BME280;71485;51.638;-0.182;2023-09-18T09:26:32;98988.24;;;26.85;36.66
81990;BME280;71485;51.638;-0.182;2023-09-18T09:28:56;98982.07;;;26.79;35.69
81990;BME280;71485;51.638;-0.182;2023-09-18T09:31:24;98975.17;;;26.56;35.76
81990;BME280;71485;51.638;-0.182;2023-09-18T09:33:50;98975.88;;;26.73;37.13
81990;BME280;71485;51.638;-0.182;2023-09-18T09:36:13;98976.80;;;26.19;36.64
81990;BME280;71485;51.638;-0.182;2023-09-18T09:38:40;98971.17;;;26.46;36.43
81990;BME280;71485;51.638;-0.182;2023-09-18T09:41:04;98964.51;;;26.23;36.46
81990;BME280;71485;51.638;-0.182;2023-09-18T09:43:31;98959.04;;;27.12;35.39
81990;BME280;71485;51.638;-0.182;2023-09-18T09:45:59;98956.23;;;26.47;35.76
81990;BME280;71485;51.638;-0.182;2023-09-18T09:48:21;98954.08;;;26.79;35.93
81990;BME280;71485;51.638;-0.182;2023-09-18T09:50:47;98951.16;;;26.63;35.78
81990;BME280;71485;51.638;-0.182;2023-09-18T09:53:11;98944.70;;;26.11;36.00
81990;BME280;71485;51.638;-0.182;2023-09-18T09:55:37;98941.64;;;26.74;35.64
81990;BME280;71485;51.638;-0.182;2023-09-18T09:58:03;98932.51;;;26.67;35.76
81990;BME280;71485;51.638;-0.182;2023-09-18T10:00:30;98929.59;;;26.67;35.73
81990;BME280;71485;51.638;-0.182;2023-09-18T10:02:56;98925.13;;;26.67;35.66
81990;BME280;71485;51.638;-0.182;2023-09-18T10:05:19;98922.55;;;26.74;35.58
81990;BME280;71485;51.638;-0.182;2023-09-18T10:07:44;98918.19;;;26.62;35.77
81990;BME280;71485;51.638;-0.182;2023-09-18T10:10:09;98912.43;;;26.78;35.53
81990;BME280;71485;51.638;-0.182;2023-09-18T10:12:36;98904.30;;;26.89;35.45
81990;BME280;71485;51.638;-0.182;2023-09-18T10:15:01;98902.71;;;26.67;35.67
81990;BME280;71485;51.638;-0.182;2023-09-18T10:17:27;98909.17;;;26.64;35.74
81990;BME280;71485;51.638;-0.182;2023-09-18T10:19:57;98898.05;;;26.58;35.81
81990;BME280;71485;51.638;-0.182;2023-09-18T10:22:22;98889.26;;;26.70;35.84
81990;BME280;71485;51.638;-0.182;2023-09-18T10:24:46;98886.51;;;27.01;36.11
81990;BME280;71485;51.638;-0.182;2023-09-18T10:27:09;98877.35;;;26.70;36.11
81990;BME280;71485;51.638;-0.182;2023-09-18T10:29:34;98879.27;;;26.97;36.11
81990;BME280;71485;51.638;-0.182;2023-09-18T10:31:59;98876.57;;;26.78;35.94
81990;BME280;71485;51.638;-0.182;2023-09-18T10:34:24;98874.27;;;26.48;36.86
81990;BME280;71485;51.638;-0.182;2023-09-18T10:36:51;98871.92;;;26.62;36.34
81990;BME280;71485;51.638;-0.182;2023-09-18T10:39:16;98866.71;;;26.69;36.09
81990;BME280;71485;51.638;-0.182;2023-09-18T10:41:41;98865.71;;;26.72;36.16
81990;BME280;71485;51.638;-0.182;2023-09-18T10:44:06;98862.49;;;26.83;36.21
81990;BME280;71485;51.638;-0.182;2023-09-18T10:46:33;98859.42;;;26.99;35.89
81990;BME280;71485;51.638;-0.182;2023-09-18T10:48:59;98864.22;;;26.49;35.69
81990;BME280;71485;51.638;-0.182;2023-09-18T10:51:24;98866.44;;;27.23;35.28
81990;BME280;71485;51.638;-0.182;2023-09-18T10:53:49;98865.45;;;26.69;35.43
81990;BME280;71485;51.638;-0.182;2023-09-18T10:56:15;98865.40;;;26.65;35.41
81990;BME280;71485;51.638;-0.182;2023-09-18T10:58:39;98867.95;;;26.66;35.31
81990;BME280;71485;51.638;-0.182;2023-09-18T11:01:05;98866.65;;;26.53;35.43
81990;BME280;71485;51.638;-0.182;2023-09-18T11:03:33;98864.73;;;26.50;35.48
81990;BME280;71485;51.638;-0.182;2023-09-18T11:06:04;98860.54;;;26.70;35.57
81990;BME280;71485;51.638;-0.182;2023-09-18T11:08:25;98858.18;;;26.80;35.45
81990;BME280;71485;51.638;-0.182;2023-09-18T11:10:57;98859.64;;;26.89;35.39
81990;BME280;71485;51.638;-0.182;2023-09-18T11:15:38;98860.66;;;27.01;35.25
81990;BME280;71485;51.638;-0.182;2023-09-18T11:18:03;98855.69;;;26.59;35.41
81990;BME280;71485;51.638;-0.182;2023-09-18T11:20:29;98854.36;;;26.94;35.26
81990;BME280;71485;51.638;-0.182;2023-09-18T11:22:57;98854.09;;;27.12;35.15
81990;BME280;71485;51.638;-0.182;2023-09-18T11:25:35;98853.49;;;26.85;35.15
81990;BME280;71485;51.638;-0.182;2023-09-18T11:27:53;98851.22;;;26.78;35.18
81990;BME280;71485;51.638;-0.182;2023-09-18T11:30:14;98854.29;;;26.76;35.18
81990;BME280;71485;51.638;-0.182;2023-09-18T11:32:38;98850.22;;;26.74;35.11
81990;BME280;71485;51.638;-0.182;2023-09-18T11:35:07;98849.15;;;26.62;35.27
81990;BME280;71485;51.638;-0.182;2023-09-18T11:37:28;98852.08;;;26.57;35.23
81990;BME280;71485;51.638;-0.182;2023-09-18T11:39:54;98853.24;;;26.99;35.10
81990;BME280;71485;51.638;-0.182;2023-09-18T11:42:20;98849.05;;;26.77;34.63
81990;BME280;71485;51.638;-0.182;2023-09-18T11:44:45;98847.98;;;26.79;34.56
81990;BME280;71485;51.638;-0.182;2023-09-18T11:47:12;98843.14;;;27.08;34.46
81990;BME280;71485;51.638;-0.182;2023-09-18T11:49:38;98848.97;;;26.84;34.45
81990;BME280;71485;51.638;-0.182;2023-09-18T11:52:02;98846.02;;;26.95;34.55
81990;BME280;71485;51.638;-0.182;2023-09-18T11:54:39;98850.30;;;26.83;34.67
81990;BME280;71485;51.638;-0.182;2023-09-18T11:56:52;98847.54;;;26.71;34.50
81990;BME280;71485;51.638;-0.182;2023-09-18T11:59:18;98845.83;;;26.68;34.36
81990;BME280;71485;51.638;-0.182;2023-09-18T12:01:43;98847.58;;;26.51;34.37
81990;BME280;71485;51.638;-0.182;2023-09-18T12:04:09;98857.21;;;26.50;34.41
81990;BME280;71485;51.638;-0.182;2023-09-18T12:06:34;98859.10;;;26.81;34.29
81990;BME280;71485;51.638;-0.182;2023-09-18T12:09:00;98858.12;;;26.46;34.53
81990;BME280;71485;51.638;-0.182;2023-09-18T12:11:26;98861.02;;;26.49;34.52
81990;BME280;71485;51.638;-0.182;2023-09-18T12:13:51;98866.72;;;26.72;34.67
81990;BME280;71485;51.638;-0.182;2023-09-18T12:16:17;98859.27;;;26.68;34.70
81990;BME280;71485;51.638;-0.182;2023-09-18T12:18:45;98862.66;;;26.46;34.68
81990;BME280;71485;51.638;-0.182;2023-09-18T12:21:07;98869.25;;;26.42;34.85
81990;BME280;71485;51.638;-0.182;2023-09-18T12:23:39;98870.46;;;26.74;34.69
81990;BME280;71485;51.638;-0.182;2023-09-18T12:26:00;98882.21;;;26.24;36.60
81990;BME280;71485;51.638;-0.182;2023-09-18T12:28:25;98880.51;;;27.29;34.47
81990;BME280;71485;51.638;-0.182;2023-09-18T12:30:50;98869.77;;;27.53;34.24
81990;BME280;71485;51.638;-0.182;2023-09-18T12:33:15;98873.61;;;28.45;32.54
81990;BME280;71485;51.638;-0.182;2023-09-18T12:35:41;98877.31;;;29.09;32.25
81990;BME280;71485;51.638;-0.182;2023-09-18T12:38:14;98886.13;;;29.21;31.14
81990;BME280;71485;51.638;-0.182;2023-09-18T12:40:32;98884.00;;;30.00;30.09
81990;BME280;71485;51.638;-0.182;2023-09-18T12:42:59;98894.48;;;30.04;29.97